Latest Weather Observations for Strahan

IDT60801

Issued at 12:35 pm EST Saturday 26 July 2014 (issued every 30 minutes, with the page automatically refreshed every 10 minutes)

About weather observations | Map of weather stations | Latest weather observations for TAS | Other Formats
Station Details ID: 097072 Name: STRAHAN AERODROME Lat: -42.16 Lon: 145.29 Height: 21.0 m
Data from the previous 72 hours. | See also: Recent months at Strahan
Date/Time
EST
Temp
°C
App
Temp
°C
Dew
Point
Rel
Hum
%
Delta-T
°C
Wind Press
QNH
hPa
Press
MSL
hPa
Rain
since 9 am
mm
Dir
 
Spd
km/h
Gust
km/h
Spd
kts
Gust
kts
26/12:30pm 13.6 12.4 8.0 69 2.8 NNE 4 7 2 4 1020.2 - 0.0
26/12:00pm 11.2 9.2 7.3 77 1.9 SE 7 11 4 6 1020.5 1020.5 0.0
26/11:30am 10.2 8.2 6.9 80 1.6 SSE 7 11 4 6 1020.9 - 0.0
26/11:00am 9.7 7.3 7.0 83 1.3 SE 9 13 5 7 1021.0 1021.0 0.0
26/10:30am 8.9 6.8 6.5 85 1.1 SSE 7 9 4 5 1021.0 - 0.0
26/10:00am 8.8 6.9 7.7 93 0.5 SE 7 9 4 5 1020.8 1020.8 0.0
26/09:30am 7.4 5.6 7.0 97 0.2 SE 6 7 3 4 1020.9 - 0.0
26/09:00am 6.8 6.0 6.4 97 0.2 CALM 0 0 0 0 1020.7 1020.7 0.8
26/08:30am 4.8 2.8 4.4 97 0.2 ENE 4 7 2 4 1020.4 - 0.8
26/08:16am 3.2 0.9 2.8 97 0.2 E 4 7 2 4 1020.4 - 0.8
26/08:00am 3.9 2.5 3.5 97 0.2 CALM 0 0 0 0 1020.2 1020.2 0.8
26/07:30am 3.6 2.1 3.2 97 0.2 CALM 0 0 0 0 1019.9 - 0.8
26/07:00am 4.2 1.1 3.8 97 0.2 ESE 9 9 5 5 1019.5 1019.5 0.8
26/06:30am 4.2 1.5 3.8 97 0.2 E 7 9 4 5 1019.3 - 0.8
26/06:02am 4.6 2.2 4.2 97 0.2 ESE 6 7 3 4 1019.0 - 0.8
26/06:00am 4.6 2.2 4.2 97 0.2 ESE 6 9 3 5 1019.0 1019.0 0.8
26/05:30am 5.3 3.0 4.9 97 0.2 SE 6 7 3 4 1018.9 - 0.8
26/05:00am 5.8 4.8 5.4 97 0.2 CALM 0 7 0 4 1018.8 1018.8 0.8
26/04:30am 5.4 2.6 5.0 97 0.2 E 9 9 5 5 1018.4 - 0.8
26/04:00am 5.7 2.9 5.3 97 0.2 SSE 9 11 5 6 1018.4 1018.4 0.8
26/03:30am 4.9 2.9 4.5 97 0.2 E 4 9 2 5 1018.4 - 0.8
26/03:19am 5.3 3.0 4.9 97 0.2 NE 6 7 3 4 1018.3 - 0.8
26/03:00am 4.3 1.6 3.9 97 0.2 E 7 9 4 5 1018.3 1018.3 0.8
26/02:30am 4.5 3.2 4.1 97 0.2 CALM 0 6 0 3 1018.6 - 0.8
26/02:25am 4.5 2.4 4.1 97 0.2 NNE 4 9 2 5 1018.5 - 0.8
26/02:12am 5.8 3.4 5.4 97 0.2 ENE 7 9 4 5 1018.4 - 0.8
26/02:00am 5.5 3.1 5.1 97 0.2 E 7 9 4 5 1018.2 1018.2 0.8
26/01:30am 4.9 2.0 4.5 97 0.2 E 9 11 5 6 1018.0 - 0.8
26/01:14am 5.0 2.1 4.6 97 0.2 ESE 9 13 5 7 1017.9 - 0.8
26/01:00am 5.6 3.4 5.2 97 0.2 E 6 7 3 4 1017.8 1017.8 0.8
26/12:30am 5.3 2.4 4.9 97 0.2 N 9 13 5 7 1017.8 - 0.8
26/12:00am 7.0 4.9 6.6 97 0.2 NE 7 9 4 5 1017.9 1017.9 0.8
 
Date/Time
EST
Temp
°C
App
Temp
°C
Dew
Point
Rel
Hum
%
Delta-T
°C
Wind Press
QNH
hPa
Press
MSL
hPa
Rain
since 9 am
mm
Dir
 
Spd
km/h
Gust
km/h
Spd
kts
Gust
kts
25/11:30pm 7.0 4.9 6.6 97 0.2 E 7 7 4 4 1017.9 - 0.8
25/11:00pm 6.6 5.3 6.2 97 0.2 E 2 7 1 4 1017.9 1017.9 0.8
25/10:30pm 7.0 5.8 6.6 97 0.2 E 2 6 1 3 1017.7 - 0.8
25/10:11pm 6.9 5.7 6.5 97 0.2 E 2 9 1 5 1017.7 - 0.8
25/10:00pm 7.1 6.3 6.7 97 0.2 CALM 0 0 0 0 1017.7 1017.7 0.8
25/09:30pm 7.1 6.0 6.7 97 0.2 N 2 6 1 3 1017.6 - 0.8
25/09:00pm 7.2 6.5 6.8 97 0.2 CALM 0 0 0 0 1017.7 1017.7 0.8
25/08:45pm 7.3 5.8 6.9 97 0.2 E 4 6 2 3 1017.6 - 0.8
25/08:30pm 7.5 5.5 7.1 97 0.2 E 7 7 4 4 1017.4 - 0.8
25/08:28pm 7.5 5.5 7.1 97 0.2 E 7 7 4 4 1017.5 - 0.8
25/08:00pm 7.8 5.9 7.4 97 0.2 SSE 7 9 4 5 1017.6 1017.6 0.8
25/07:30pm 7.6 6.6 7.2 97 0.2 SSE 2 7 1 4 1017.3 - 0.8
25/07:00pm 7.7 5.9 7.3 97 0.2 SE 6 7 3 4 1016.9 1016.9 0.8
25/06:30pm 8.2 6.0 7.8 97 0.2 S 9 11 5 6 1016.8 - 0.8
25/06:00pm 7.9 6.0 7.5 97 0.2 SSE 7 9 4 5 1016.2 1016.2 0.8
25/05:30pm 8.0 6.1 7.6 97 0.2 SSE 7 9 4 5 1016.1 - 0.8
25/05:00pm 8.4 5.8 7.6 95 0.4 S 11 13 6 7 1015.9 1015.9 0.6
25/04:30pm 8.9 6.2 7.5 91 0.7 SSE 11 15 6 8 1015.9 - 0.4
25/04:00pm 9.3 7.0 7.4 88 0.9 S 9 15 5 8 1015.7 1015.7 0.4
25/03:30pm 9.4 6.2 6.8 84 1.2 S 13 19 7 10 1015.2 - 0.4
25/03:00pm 10.3 8.2 8.2 87 1.0 SSE 9 13 5 7 1015.0 1015.1 0.4
25/02:30pm 9.1 6.1 7.7 91 0.7 SSE 13 17 7 9 1015.0 - 0.4
25/02:00pm 9.5 6.7 6.8 83 1.3 SSE 11 15 6 8 1015.1 1015.2 0.4
25/01:30pm 9.1 5.9 6.7 85 1.1 SSE 13 17 7 9 1015.0 - 0.4
25/01:00pm 8.7 6.2 6.5 86 1.0 SSE 9 13 5 7 1015.2 1015.3 0.4
25/12:30pm 8.6 5.9 7.4 92 0.6 S 11 15 6 8 1015.4 - 0.4
25/12:00pm 8.5 6.2 7.4 93 0.5 S 9 13 5 7 1015.7 1015.7 0.4
25/11:30am 8.5 5.7 7.0 90 0.7 SSE 11 15 6 8 1016.1 - 0.4
25/11:00am 7.9 5.1 7.0 94 0.4 S 11 15 6 8 1016.3 1016.3 0.4
25/10:30am 7.5 5.1 7.1 97 0.2 SE 9 11 5 6 1016.4 - 0.4
25/10:00am 7.3 5.2 6.7 96 0.3 SE 7 7 4 4 1016.4 1016.4 0.4
25/09:30am 7.1 5.9 6.4 95 0.3 SSE 2 6 1 3 1016.5 - 0.0
25/09:00am 6.7 4.0 5.7 93 0.4 SSE 9 11 5 6 1016.4 1016.4 0.0
25/08:30am 6.6 4.3 5.7 94 0.4 S 7 9 4 5 1016.1 - 0.0
25/08:00am 6.4 4.1 5.5 94 0.4 SSE 7 7 4 4 1015.7 1015.7 0.0
25/07:30am 6.2 4.0 5.2 93 0.4 SE 6 9 3 5 1015.4 - 0.0
25/07:00am 6.1 3.7 5.2 94 0.4 SSE 7 11 4 6 1015.2 1015.3 0.0
25/06:30am 5.9 2.6 4.7 92 0.5 SE 11 13 6 7 1014.9 - 0.0
25/06:00am 6.5 3.2 4.7 88 0.8 S 11 13 6 7 1014.6 1014.7 0.0
25/05:30am 6.4 4.1 5.0 91 0.6 ESE 6 7 3 4 1014.6 - 0.0
25/05:00am 6.3 3.5 5.1 92 0.5 SE 9 13 5 7 1014.6 1014.7 0.0
25/04:30am 6.4 3.6 5.0 91 0.6 SSE 9 13 5 7 1014.5 - 0.0
25/04:00am 6.5 3.7 5.3 92 0.5 S 9 9 5 5 1014.6 1014.7 0.0
25/03:30am 6.3 3.5 5.1 92 0.5 SSE 9 11 5 6 1014.6 - 0.0
25/03:00am 5.8 3.3 4.6 92 0.5 SSE 7 11 4 6 1014.8 1014.9 0.0
25/02:30am 5.9 1.9 5.0 94 0.4 S 15 19 8 10 1014.9 - 0.0
25/02:00am 5.9 3.1 5.3 96 0.3 SSE 9 11 5 6 1015.0 1015.1 0.0
25/01:30am 5.7 2.9 5.0 95 0.3 SE 9 13 5 7 1015.1 - 0.0
25/01:00am 5.9 3.1 5.2 95 0.3 SSE 9 13 5 7 1015.2 1015.3 0.0
25/12:30am 6.3 2.8 5.4 94 0.4 S 13 19 7 10 1015.5 - 0.0
25/12:00am 5.8 2.7 5.4 97 0.2 S 11 15 6 8 1015.8 1015.8 0.0
 
Date/Time
EST
Temp
°C
App
Temp
°C
Dew
Point
Rel
Hum
%
Delta-T
°C
Wind Press
QNH
hPa
Press
MSL
hPa
Rain
since 9 am
mm
Dir
 
Spd
km/h
Gust
km/h
Spd
kts
Gust
kts
24/11:30pm 5.6 2.8 5.2 97 0.2 SSE 9 13 5 7 1016.1 - 0.0
24/11:00pm 5.6 2.0 5.2 97 0.2 S 13 17 7 9 1016.1 1016.1 0.0
24/10:30pm 4.6 1.2 4.2 97 0.2 SE 11 15 6 8 1016.2 - 0.0
24/10:00pm 4.3 1.3 3.9 97 0.2 SSE 9 13 5 7 1016.4 1016.4 0.0
24/09:30pm 4.8 1.5 4.4 97 0.2 SSE 11 11 6 6 1016.4 - 0.0
24/09:00pm 4.7 1.7 4.3 97 0.2 SE 9 13 5 7 1016.4 1016.4 0.0
24/08:30pm 4.9 2.4 4.5 97 0.2 SSE 7 9 4 5 1016.3 - 0.0
24/08:00pm 5.6 3.8 5.2 97 0.2 S 4 9 2 5 1016.2 1016.2 0.0
24/07:30pm 5.0 3.8 4.6 97 0.2 CALM 0 0 0 0 1016.2 - 0.0
24/07:00pm 4.5 2.0 3.9 96 0.3 S 6 7 3 4 1016.2 1016.2 0.0
24/06:30pm 5.1 2.5 4.2 94 0.4 S 7 9 4 5 1016.1 - 0.0
24/06:00pm 5.7 2.7 4.3 91 0.6 S 9 11 5 6 1016.0 1016.0 0.0
24/05:30pm 7.0 4.2 5.3 89 0.8 SSE 9 11 5 6 1015.9 - 0.0
24/05:00pm 7.8 4.6 5.3 84 1.1 S 11 13 6 7 1015.9 1015.9 0.0
24/04:30pm 8.7 5.6 5.4 80 1.5 S 11 15 6 8 1015.8 - 0.0
24/04:00pm 10.6 8.0 6.0 73 2.1 S 9 13 5 7 1015.8 1015.8 0.0
24/03:30pm 11.5 8.4 5.6 67 2.7 SSE 11 15 6 8 1015.8 - 0.0
24/03:00pm 12.7 9.5 5.1 60 3.5 SSE 11 17 6 9 1015.8 1015.8 0.0
24/02:30pm 11.9 8.4 5.5 65 3.0 ESE 13 17 7 9 1016.0 - 0.0
24/02:00pm 11.4 8.7 5.5 67 2.7 ESE 9 13 5 7 1016.0 1016.0 0.0
24/01:30pm 9.6 6.2 6.1 79 1.6 SSE 13 17 7 9 1016.4 - 0.0
24/01:00pm 8.9 5.1 5.6 80 1.5 SSE 15 19 8 10 1016.9 1016.9 0.0
24/12:30pm 8.6 4.7 5.2 79 1.5 SSE 15 20 8 11 1017.3 - 0.0
24/12:00pm 8.5 4.6 5.4 81 1.4 SSE 15 19 8 10 1017.7 1017.7 0.0
24/11:30am 7.1 3.2 5.4 89 0.8 SSE 15 19 8 10 1018.2 - 0.0
24/11:00am 6.5 2.5 5.1 91 0.6 SSE 15 19 8 10 1018.5 1018.5 0.0
24/10:30am 5.5 1.1 4.6 94 0.4 SSE 17 20 9 11 1018.7 - 0.0
24/10:00am 4.6 0.8 3.7 94 0.4 SSE 13 17 7 9 1019.0 1019.0 0.0
24/09:30am 4.1 1.4 3.7 97 0.2 SE 7 11 4 6 1019.3 - 0.0
24/09:00am 2.0 -1.1 1.6 97 0.2 ESE 7 9 4 5 1019.3 1019.3 0.0
24/08:30am 1.6 -1.3 1.2 97 0.2 E 6 7 3 4 1019.3 - 0.0
24/08:00am 1.0 -2.2 0.6 97 0.1 E 7 9 4 5 1019.0 1019.0 0.0
24/07:30am 0.7 -2.9 0.3 97 0.1 E 9 9 5 5 1018.9 - 0.0
24/07:13am 0.1 -3.3 -0.3 97 0.1 E 7 9 4 5 1018.9 - 0.0
24/07:00am 0.1 -3.3 -0.5 96 0.2 E 7 9 4 5 1018.8 1018.8 0.0
24/06:51am 0.4 -2.9 -0.2 96 0.2 ESE 7 7 4 4 1018.7 - 0.0
24/06:30am 0.6 -2.5 -0.1 95 0.3 NE 6 6 3 3 1018.8 - 0.0
24/06:00am 1.7 -1.3 1.1 96 0.2 NE 6 7 3 4 1018.7 1018.7 0.0
24/05:30am 1.3 -1.3 0.7 96 0.2 NE 4 7 2 4 1018.6 - 0.0
24/05:00am 2.1 -1.3 1.7 97 0.2 NE 9 11 5 6 1018.6 1018.6 0.0
24/04:30am 0.7 -3.0 -0.2 94 0.3 ENE 9 11 5 6 1018.7 - 0.0
24/04:00am 2.2 -0.9 1.3 94 0.3 NE 7 9 4 5 1018.9 1018.9 0.0
24/03:30am 2.5 -0.9 2.1 97 0.2 NE 9 13 5 7 1018.9 - 0.0
24/03:00am 1.7 -1.4 1.3 97 0.2 NE 7 11 4 6 1018.9 1018.9 0.0
24/02:30am 1.8 -1.3 1.4 97 0.2 N 7 9 4 5 1019.1 - 0.0
24/02:00am 2.4 0.0 2.0 97 0.2 N 4 9 2 5 1019.1 1019.1 0.0
24/01:30am 1.4 -0.8 1.0 97 0.1 N 2 7 1 4 1019.1 - 0.0
24/01:00am 1.2 -0.7 0.8 97 0.1 CALM 0 0 0 0 1019.2 1019.2 0.0
24/12:58am 1.2 -0.7 0.8 97 0.1 CALM 0 0 0 0 1019.3 - 0.0
24/12:36am 1.7 -0.5 1.3 97 0.2 NE 2 6 1 3 1019.4 - 0.0
24/12:30am 2.2 -0.3 1.8 97 0.2 NE 4 7 2 4 1019.4 - 0.0
24/12:00am 3.2 0.3 2.8 97 0.2 NE 7 9 4 5 1019.6 1019.6 0.0
 
Date/Time
EST
Temp
°C
App
Temp
°C
Dew
Point
Rel
Hum
%
Delta-T
°C
Wind Press
QNH
hPa
Press
MSL
hPa
Rain
since 9 am
mm
Dir
 
Spd
km/h
Gust
km/h
Spd
kts
Gust
kts
23/11:30pm 3.6 0.8 3.2 97 0.2 NE 7 9 4 5 1019.9 - 0.0
23/11:00pm 3.5 0.3 3.1 97 0.2 NE 9 11 5 6 1020.2 1020.2 0.0
23/10:30pm 3.8 1.0 3.4 97 0.2 NE 7 9 4 5 1020.3 - 0.0
23/10:12pm 3.3 0.5 2.9 97 0.2 ENE 7 9 4 5 1020.5 - 0.0
23/10:00pm 3.1 0.2 2.7 97 0.2 ENE 7 9 4 5 1020.6 1020.6 0.0
23/09:50pm 2.8 -0.1 2.4 97 0.2 E 7 9 4 5 1020.7 - 0.0
23/09:30pm 3.9 1.2 3.5 97 0.2 NE 7 9 4 5 1020.7 - 0.0
23/09:00pm 3.9 0.8 3.5 97 0.2 NE 9 11 5 6 1020.9 1020.9 0.0
23/08:43pm 3.7 0.9 3.3 97 0.2 NNE 7 9 4 5 1020.9 - 0.0
23/08:30pm 3.3 0.5 2.9 97 0.2 ENE 7 9 4 5 1020.8 - 0.0
23/08:10pm 2.9 1.3 2.5 97 0.2 CALM 0 0 0 0 1020.9 - 0.0
23/08:00pm 3.5 2.0 3.1 97 0.2 CALM 0 6 0 3 1020.9 1020.9 0.0
23/07:30pm 3.9 1.2 3.5 97 0.2 NNE 7 11 4 6 1020.9 - 0.0
23/07:00pm 3.7 0.5 3.0 95 0.3 NNE 9 11 5 6 1020.8 1020.8 0.0
23/06:30pm 5.2 2.7 4.6 96 0.3 NNE 7 9 4 5 1020.8 - 0.0
23/06:00pm 5.2 4.0 4.5 95 0.3 CALM 0 0 0 0 1020.5 1020.5 0.0
23/05:30pm 6.1 4.9 4.7 91 0.6 CALM 0 0 0 0 1020.5 - 0.0
23/05:00pm 8.1 5.7 4.5 78 1.6 SE 6 7 3 4 1020.6 1020.6 0.0
23/04:30pm 9.7 7.5 5.5 75 1.9 SSE 6 7 3 4 1020.6 - 0.0
23/04:00pm 10.8 8.4 5.3 69 2.5 SSE 7 9 4 5 1020.6 1020.6 0.0
23/03:30pm 11.7 8.9 5.1 64 3.0 SW 9 13 5 7 1020.8 - 0.0
23/03:00pm 12.1 9.2 4.6 60 3.4 WSW 9 13 5 7 1020.8 1020.8 0.0
23/02:30pm 12.2 8.9 4.7 60 3.4 WSW 11 13 6 7 1020.9 - 0.0
23/02:00pm 12.5 9.7 5.0 60 3.4 SW 9 15 5 8 1021.0 1021.0 0.0
23/01:30pm 11.7 9.6 6.8 72 2.3 SE 7 9 4 5 1021.2 - 0.0
23/01:00pm 11.2 8.6 6.3 72 2.3 SSE 9 13 5 7 1021.5 1021.5 0.0

Other Formats:

Comma delimited format used in spreadsheet applications
http://www.bom.gov.au/fwo/IDT60801/IDT60801.94956.axf

JavaScript Object Notation format (JSON) in row-major order
http://www.bom.gov.au/fwo/IDT60801/IDT60801.94956.json